sensor_id;sensor_type;location;lat;lon;timestamp;temperature;humidity
14182;DHT22;7171;50.936;6.764;2022-10-16T05:04:07;15.40;99.90
14182;DHT22;7171;50.936;6.764;2022-10-16T05:06:33;15.40;99.90
14182;DHT22;7171;50.936;6.764;2022-10-16T05:09:00;15.30;99.90
14182;DHT22;7171;50.936;6.764;2022-10-16T05:11:27;15.30;99.90
14182;DHT22;7171;50.936;6.764;2022-10-16T05:13:54;15.60;99.90
14182;DHT22;7171;50.936;6.764;2022-10-16T05:16:20;15.80;99.90
14182;DHT22;7171;50.936;6.764;2022-10-16T05:18:47;16.00;99.90
14182;DHT22;7171;50.936;6.764;2022-10-16T05:21:15;16.20;99.90
14182;DHT22;7171;50.936;6.764;2022-10-16T05:23:42;16.50;99.90
14182;DHT22;7171;50.936;6.764;2022-10-16T05:26:08;16.60;99.90
14182;DHT22;7171;50.936;6.764;2022-10-16T05:28:35;16.70;99.90
14182;DHT22;7171;50.936;6.764;2022-10-16T05:31:04;16.90;99.90
14182;DHT22;7171;50.936;6.764;2022-10-16T05:33:31;16.90;99.90
14182;DHT22;7171;50.936;6.764;2022-10-16T05:36:00;17.00;99.90
14182;DHT22;7171;50.936;6.764;2022-10-16T05:38:29;17.00;99.90
14182;DHT22;7171;50.936;6.764;2022-10-16T05:40:56;17.00;99.90
14182;DHT22;7171;50.936;6.764;2022-10-16T05:43:23;16.90;99.90
14182;DHT22;7171;50.936;6.764;2022-10-16T05:45:54;17.10;99.90
14182;DHT22;7171;50.936;6.764;2022-10-16T05:48:21;17.10;99.90
14182;DHT22;7171;50.936;6.764;2022-10-16T05:50:48;17.10;99.90
14182;DHT22;7171;50.936;6.764;2022-10-16T05:53:15;17.10;99.90
14182;DHT22;7171;50.936;6.764;2022-10-16T05:55:43;17.10;99.90
14182;DHT22;7171;50.936;6.764;2022-10-16T05:58:17;17.20;99.90
14182;DHT22;7171;50.936;6.764;2022-10-16T06:00:44;17.40;99.90
14182;DHT22;7171;50.936;6.764;2022-10-16T06:03:10;17.40;99.90
14182;DHT22;7171;50.936;6.764;2022-10-16T06:05:37;17.50;99.90
14182;DHT22;7171;50.936;6.764;2022-10-16T06:08:04;17.50;99.90
14182;DHT22;7171;50.936;6.764;2022-10-16T06:10:31;17.40;99.90
14182;DHT22;7171;50.936;6.764;2022-10-16T06:12:59;17.40;99.90
14182;DHT22;7171;50.936;6.764;2022-10-16T06:15:25;17.40;99.90
14182;DHT22;7171;50.936;6.764;2022-10-16T06:17:52;17.40;99.90
14182;DHT22;7171;50.936;6.764;2022-10-16T06:20:19;17.30;99.90
14182;DHT22;7171;50.936;6.764;2022-10-16T06:22:45;17.40;99.90
14182;DHT22;7171;50.936;6.764;2022-10-16T06:25:12;17.30;99.90
14182;DHT22;7171;50.936;6.764;2022-10-16T06:27:39;17.20;99.90
14182;DHT22;7171;50.936;6.764;2022-10-16T06:30:09;17.20;99.90
14182;DHT22;7171;50.936;6.764;2022-10-16T06:32:36;17.10;99.90
14182;DHT22;7171;50.936;6.764;2022-10-16T06:35:03;17.10;99.90
14182;DHT22;7171;50.936;6.764;2022-10-16T06:37:29;17.20;99.90
14182;DHT22;7171;50.936;6.764;2022-10-16T06:39:56;17.20;99.90
14182;DHT22;7171;50.936;6.764;2022-10-16T06:42:23;17.30;99.90
14182;DHT22;7171;50.936;6.764;2022-10-16T06:44:49;17.20;99.90
14182;DHT22;7171;50.936;6.764;2022-10-16T06:47:17;17.10;99.90
14182;DHT22;7171;50.936;6.764;2022-10-16T06:49:44;17.10;99.90
14182;DHT22;7171;50.936;6.764;2022-10-16T06:52:10;17.10;99.90
14182;DHT22;7171;50.936;6.764;2022-10-16T06:54:37;17.10;99.90
14182;DHT22;7171;50.936;6.764;2022-10-16T06:57:04;17.10;99.90
14182;DHT22;7171;50.936;6.764;2022-10-16T06:59:31;17.10;99.90
14182;DHT22;7171;50.936;6.764;2022-10-16T07:01:57;17.20;99.90
14182;DHT22;7171;50.936;6.764;2022-10-16T07:04:25;17.20;99.90
14182;DHT22;7171;50.936;6.764;2022-10-16T07:06:52;17.20;99.90
14182;DHT22;7171;50.936;6.764;2022-10-16T07:09:19;17.20;99.90
14182;DHT22;7171;50.936;6.764;2022-10-16T07:11:45;17.20;99.90
14182;DHT22;7171;50.936;6.764;2022-10-16T07:14:15;17.30;99.90
14182;DHT22;7171;50.936;6.764;2022-10-16T07:16:42;17.30;99.90
14182;DHT22;7171;50.936;6.764;2022-10-16T07:19:09;17.40;99.90
14182;DHT22;7171;50.936;6.764;2022-10-16T07:21:39;17.30;99.90
14182;DHT22;7171;50.936;6.764;2022-10-16T07:24:10;17.40;99.90
14182;DHT22;7171;50.936;6.764;2022-10-16T07:26:37;17.50;99.90
14182;DHT22;7171;50.936;6.764;2022-10-16T07:29:05;17.40;99.90
14182;DHT22;7171;50.936;6.764;2022-10-16T07:31:32;17.50;99.90
14182;DHT22;7171;50.936;6.764;2022-10-16T07:33:59;17.50;99.90
14182;DHT22;7171;50.936;6.764;2022-10-16T07:36:26;17.60;99.90
14182;DHT22;7171;50.936;6.764;2022-10-16T07:38:55;17.60;99.90
14182;DHT22;7171;50.936;6.764;2022-10-16T07:41:21;17.60;99.90
14182;DHT22;7171;50.936;6.764;2022-10-16T07:43:49;17.60;99.90
14182;DHT22;7171;50.936;6.764;2022-10-16T07:46:17;17.70;99.90
14182;DHT22;7171;50.936;6.764;2022-10-16T07:48:45;17.70;99.90
14182;DHT22;7171;50.936;6.764;2022-10-16T07:51:14;17.80;99.90
14182;DHT22;7171;50.936;6.764;2022-10-16T07:53:41;17.80;99.90
14182;DHT22;7171;50.936;6.764;2022-10-16T07:56:10;17.80;99.90
14182;DHT22;7171;50.936;6.764;2022-10-16T07:58:37;17.90;99.90
14182;DHT22;7171;50.936;6.764;2022-10-16T08:01:05;17.90;99.90
14182;DHT22;7171;50.936;6.764;2022-10-16T08:03:32;17.90;99.90
14182;DHT22;7171;50.936;6.764;2022-10-16T08:06:00;17.80;99.90
14182;DHT22;7171;50.936;6.764;2022-10-16T08:08:27;17.90;99.90
14182;DHT22;7171;50.936;6.764;2022-10-16T08:10:54;17.90;99.90
14182;DHT22;7171;50.936;6.764;2022-10-16T08:13:22;17.80;99.90
14182;DHT22;7171;50.936;6.764;2022-10-16T08:15:49;18.00;99.90
14182;DHT22;7171;50.936;6.764;2022-10-16T08:18:16;18.10;99.90
14182;DHT22;7171;50.936;6.764;2022-10-16T08:20:43;18.10;99.90
14182;DHT22;7171;50.936;6.764;2022-10-16T08:23:11;18.20;99.90
14182;DHT22;7171;50.936;6.764;2022-10-16T08:25:39;18.20;99.90
14182;DHT22;7171;50.936;6.764;2022-10-16T08:28:06;18.30;99.90
14182;DHT22;7171;50.936;6.764;2022-10-16T08:30:35;18.40;99.90
14182;DHT22;7171;50.936;6.764;2022-10-16T08:33:02;18.50;99.90
14182;DHT22;7171;50.936;6.764;2022-10-16T08:35:29;18.50;99.90
14182;DHT22;7171;50.936;6.764;2022-10-16T08:37:56;18.70;99.90
14182;DHT22;7171;50.936;6.764;2022-10-16T08:40:24;18.70;99.90
14182;DHT22;7171;50.936;6.764;2022-10-16T08:43:06;18.70;99.90
14182;DHT22;7171;50.936;6.764;2022-10-16T08:45:46;18.80;99.90
14182;DHT22;7171;50.936;6.764;2022-10-16T08:48:19;18.80;99.90
14182;DHT22;7171;50.936;6.764;2022-10-16T08:50:50;18.90;99.90
14182;DHT22;7171;50.936;6.764;2022-10-16T08:53:20;19.00;99.90
14182;DHT22;7171;50.936;6.764;2022-10-16T08:55:50;19.00;99.90
14182;DHT22;7171;50.936;6.764;2022-10-16T08:58:18;19.00;99.90
14182;DHT22;7171;50.936;6.764;2022-10-16T09:00:48;19.10;99.90
14182;DHT22;7171;50.936;6.764;2022-10-16T09:03:31;19.20;99.90
14182;DHT22;7171;50.936;6.764;2022-10-16T09:06:10;19.20;99.90
14182;DHT22;7171;50.936;6.764;2022-10-16T09:08:51;19.30;99.90
14182;DHT22;7171;50.936;6.764;2022-10-16T09:11:25;19.40;99.90
14182;DHT22;7171;50.936;6.764;2022-10-16T09:13:59;19.50;99.90
14182;DHT22;7171;50.936;6.764;2022-10-16T09:16:32;19.50;99.90
14182;DHT22;7171;50.936;6.764;2022-10-16T09:19:09;19.60;99.90
14182;DHT22;7171;50.936;6.764;2022-10-16T09:21:40;19.70;99.90
14182;DHT22;7171;50.936;6.764;2022-10-16T09:24:14;19.80;99.90
14182;DHT22;7171;50.936;6.764;2022-10-16T09:26:41;19.80;99.90
14182;DHT22;7171;50.936;6.764;2022-10-16T09:29:10;19.90;99.90
14182;DHT22;7171;50.936;6.764;2022-10-16T09:31:39;19.90;99.90
14182;DHT22;7171;50.936;6.764;2022-10-16T09:34:08;20.00;99.90
14182;DHT22;7171;50.936;6.764;2022-10-16T09:36:45;20.00;99.90
14182;DHT22;7171;50.936;6.764;2022-10-16T09:39:12;20.10;99.90
14182;DHT22;7171;50.936;6.764;2022-10-16T09:41:40;20.10;99.90
14182;DHT22;7171;50.936;6.764;2022-10-16T09:44:18;20.20;99.90
14182;DHT22;7171;50.936;6.764;2022-10-16T09:46:47;20.30;99.90
14182;DHT22;7171;50.936;6.764;2022-10-16T09:49:21;20.30;99.90
14182;DHT22;7171;50.936;6.764;2022-10-16T09:51:49;20.40;99.90
14182;DHT22;7171;50.936;6.764;2022-10-16T09:54:17;20.50;99.90
14182;DHT22;7171;50.936;6.764;2022-10-16T09:56:44;20.60;99.90
14182;DHT22;7171;50.936;6.764;2022-10-16T09:59:16;20.60;99.90
14182;DHT22;7171;50.936;6.764;2022-10-16T10:01:47;20.70;99.90
14182;DHT22;7171;50.936;6.764;2022-10-16T10:04:14;20.80;99.90
14182;DHT22;7171;50.936;6.764;2022-10-16T10:06:44;20.80;99.90
14182;DHT22;7171;50.936;6.764;2022-10-16T10:09:18;20.90;99.90
14182;DHT22;7171;50.936;6.764;2022-10-16T10:11:49;21.00;99.90
14182;DHT22;7171;50.936;6.764;2022-10-16T10:14:25;21.10;99.90
14182;DHT22;7171;50.936;6.764;2022-10-16T10:17:12;21.10;99.90
14182;DHT22;7171;50.936;6.764;2022-10-16T10:19:42;21.20;99.90
14182;DHT22;7171;50.936;6.764;2022-10-16T10:22:22;21.30;99.90
14182;DHT22;7171;50.936;6.764;2022-10-16T10:25:22;21.40;99.90
14182;DHT22;7171;50.936;6.764;2022-10-16T10:28:07;21.40;99.90
14182;DHT22;7171;50.936;6.764;2022-10-16T10:30:40;21.50;99.90
14182;DHT22;7171;50.936;6.764;2022-10-16T10:33:18;21.50;99.90
14182;DHT22;7171;50.936;6.764;2022-10-16T10:35:56;21.50;99.90
14182;DHT22;7171;50.936;6.764;2022-10-16T10:38:33;21.50;99.90
14182;DHT22;7171;50.936;6.764;2022-10-16T10:41:18;21.50;99.90
14182;DHT22;7171;50.936;6.764;2022-10-16T10:43:57;21.50;99.90
14182;DHT22;7171;50.936;6.764;2022-10-16T10:46:34;21.50;99.90
14182;DHT22;7171;50.936;6.764;2022-10-16T10:49:16;21.50;99.90
14182;DHT22;7171;50.936;6.764;2022-10-16T10:51:55;21.50;99.90
14182;DHT22;7171;50.936;6.764;2022-10-16T10:54:30;21.50;99.90
14182;DHT22;7171;50.936;6.764;2022-10-16T10:57:02;21.50;99.90
14182;DHT22;7171;50.936;6.764;2022-10-16T10:59:54;21.50;99.90
14182;DHT22;7171;50.936;6.764;2022-10-16T11:02:31;21.50;99.90
14182;DHT22;7171;50.936;6.764;2022-10-16T11:05:19;21.50;99.90
14182;DHT22;7171;50.936;6.764;2022-10-16T11:07:52;21.50;99.90
14182;DHT22;7171;50.936;6.764;2022-10-16T11:10:22;21.40;99.90
14182;DHT22;7171;50.936;6.764;2022-10-16T11:12:53;21.40;99.90
14182;DHT22;7171;50.936;6.764;2022-10-16T11:15:25;21.30;99.90
14182;DHT22;7171;50.936;6.764;2022-10-16T11:17:58;21.30;99.90
14182;DHT22;7171;50.936;6.764;2022-10-16T11:20:29;21.20;99.90
14182;DHT22;7171;50.936;6.764;2022-10-16T11:23:01;21.20;99.90
14182;DHT22;7171;50.936;6.764;2022-10-16T11:25:30;21.20;99.90
14182;DHT22;7171;50.936;6.764;2022-10-16T11:28:01;21.30;99.90
14182;DHT22;7171;50.936;6.764;2022-10-16T11:30:30;21.30;99.90
14182;DHT22;7171;50.936;6.764;2022-10-16T11:33:20;21.40;99.90
14182;DHT22;7171;50.936;6.764;2022-10-16T11:35:53;21.40;99.90
14182;DHT22;7171;50.936;6.764;2022-10-16T11:38:27;21.50;99.90
14182;DHT22;7171;50.936;6.764;2022-10-16T11:41:00;21.50;99.90
14182;DHT22;7171;50.936;6.764;2022-10-16T11:43:32;21.60;99.90
14182;DHT22;7171;50.936;6.764;2022-10-16T11:46:04;21.70;99.90
14182;DHT22;7171;50.936;6.764;2022-10-16T11:48:38;21.70;99.90
14182;DHT22;7171;50.936;6.764;2022-10-16T11:51:15;21.70;99.90
14182;DHT22;7171;50.936;6.764;2022-10-16T11:53:48;21.70;99.90
14182;DHT22;7171;50.936;6.764;2022-10-16T11:56:18;21.70;99.90
14182;DHT22;7171;50.936;6.764;2022-10-16T11:58:52;21.70;99.90
14182;DHT22;7171;50.936;6.764;2022-10-16T12:01:26;21.70;99.90
14182;DHT22;7171;50.936;6.764;2022-10-16T12:04:06;21.80;99.90
14182;DHT22;7171;50.936;6.764;2022-10-16T12:06:42;21.90;99.90
14182;DHT22;7171;50.936;6.764;2022-10-16T12:09:15;21.90;99.90
14182;DHT22;7171;50.936;6.764;2022-10-16T12:11:42;22.00;99.90
14182;DHT22;7171;50.936;6.764;2022-10-16T12:14:33;22.00;99.90
14182;DHT22;7171;50.936;6.764;2022-10-16T12:17:03;22.00;99.90
14182;DHT22;7171;50.936;6.764;2022-10-16T12:19:31;22.00;99.90
14182;DHT22;7171;50.936;6.764;2022-10-16T12:22:02;22.00;99.90
14182;DHT22;7171;50.936;6.764;2022-10-16T12:24:33;22.00;99.90
14182;DHT22;7171;50.936;6.764;2022-10-16T12:27:01;22.00;99.90
14182;DHT22;7171;50.936;6.764;2022-10-16T12:29:36;22.00;99.90
14182;DHT22;7171;50.936;6.764;2022-10-16T12:32:05;22.00;99.90
14182;DHT22;7171;50.936;6.764;2022-10-16T12:34:45;22.00;99.90
14182;DHT22;7171;50.936;6.764;2022-10-16T12:37:20;21.90;99.90
14182;DHT22;7171;50.936;6.764;2022-10-16T12:39:48;21.90;99.90
14182;DHT22;7171;50.936;6.764;2022-10-16T12:42:30;21.90;99.90
14182;DHT22;7171;50.936;6.764;2022-10-16T12:44:57;21.90;99.90
14182;DHT22;7171;50.936;6.764;2022-10-16T12:47:35;22.00;99.90
14182;DHT22;7171;50.936;6.764;2022-10-16T12:50:21;22.10;99.90
14182;DHT22;7171;50.936;6.764;2022-10-16T12:52:50;22.10;99.90
14182;DHT22;7171;50.936;6.764;2022-10-16T12:55:19;22.10;99.90
14182;DHT22;7171;50.936;6.764;2022-10-16T12:58:03;22.20;99.90
14182;DHT22;7171;50.936;6.764;2022-10-16T13:00:39;22.20;99.90
14182;DHT22;7171;50.936;6.764;2022-10-16T13:03:36;22.30;99.90
14182;DHT22;7171;50.936;6.764;2022-10-16T13:06:18;22.30;99.90
14182;DHT22;7171;50.936;6.764;2022-10-16T13:09:02;22.30;99.90
14182;DHT22;7171;50.936;6.764;2022-10-16T13:11:51;22.30;99.90
14182;DHT22;7171;50.936;6.764;2022-10-16T13:17:23;22.40;99.90
14182;DHT22;7171;50.936;6.764;2022-10-16T13:19:58;22.50;99.90
14182;DHT22;7171;50.936;6.764;2022-10-16T13:22:32;22.50;99.90
14182;DHT22;7171;50.936;6.764;2022-10-16T13:25:15;22.60;99.90
14182;DHT22;7171;50.936;6.764;2022-10-16T13:27:49;22.50;99.90
14182;DHT22;7171;50.936;6.764;2022-10-16T13:30:20;22.50;99.90
14182;DHT22;7171;50.936;6.764;2022-10-16T13:32:48;22.50;99.90
14182;DHT22;7171;50.936;6.764;2022-10-16T13:35:21;22.50;99.90
14182;DHT22;7171;50.936;6.764;2022-10-16T13:37:48;22.50;99.90
14182;DHT22;7171;50.936;6.764;2022-10-16T13:40:21;22.60;99.90
14182;DHT22;7171;50.936;6.764;2022-10-16T13:42:48;22.60;99.90
14182;DHT22;7171;50.936;6.764;2022-10-16T13:45:19;22.70;99.90
14182;DHT22;7171;50.936;6.764;2022-10-16T13:47:45;22.70;99.90
14182;DHT22;7171;50.936;6.764;2022-10-16T13:50:14;22.80;99.90
14182;DHT22;7171;50.936;6.764;2022-10-16T13:52:42;22.70;99.90
14182;DHT22;7171;50.936;6.764;2022-10-16T13:55:11;22.70;99.90
14182;DHT22;7171;50.936;6.764;2022-10-16T13:57:40;22.80;99.90
14182;DHT22;7171;50.936;6.764;2022-10-16T14:00:21;22.80;99.90
14182;DHT22;7171;50.936;6.764;2022-10-16T14:02:55;22.80;99.90
14182;DHT22;7171;50.936;6.764;2022-10-16T14:05:23;22.80;99.90
14182;DHT22;7171;50.936;6.764;2022-10-16T14:07:51;22.80;99.90
14182;DHT22;7171;50.936;6.764;2022-10-16T14:10:22;22.80;99.90
14182;DHT22;7171;50.936;6.764;2022-10-16T14:12:56;22.80;99.90
14182;DHT22;7171;50.936;6.764;2022-10-16T14:15:23;22.80;99.90
14182;DHT22;7171;50.936;6.764;2022-10-16T14:17:52;22.80;99.90
14182;DHT22;7171;50.936;6.764;2022-10-16T14:20:21;22.90;99.90
14182;DHT22;7171;50.936;6.764;2022-10-16T14:22:59;22.90;99.90
14182;DHT22;7171;50.936;6.764;2022-10-16T14:25:29;22.80;99.90
14182;DHT22;7171;50.936;6.764;2022-10-16T14:28:02;22.90;99.90
14182;DHT22;7171;50.936;6.764;2022-10-16T14:30:30;22.90;99.90
14182;DHT22;7171;50.936;6.764;2022-10-16T14:32:59;22.90;99.90
14182;DHT22;7171;50.936;6.764;2022-10-16T14:35:29;22.90;99.90
14182;DHT22;7171;50.936;6.764;2022-10-16T14:37:57;22.80;99.90
14182;DHT22;7171;50.936;6.764;2022-10-16T14:40:26;22.80;99.90
14182;DHT22;7171;50.936;6.764;2022-10-16T14:42:53;22.80;99.90
14182;DHT22;7171;50.936;6.764;2022-10-16T14:45:24;22.70;99.90
14182;DHT22;7171;50.936;6.764;2022-10-16T14:47:54;22.60;99.90
14182;DHT22;7171;50.936;6.764;2022-10-16T14:50:21;22.60;99.90
14182;DHT22;7171;50.936;6.764;2022-10-16T14:52:48;22.50;99.90
14182;DHT22;7171;50.936;6.764;2022-10-16T14:55:15;22.50;99.90
14182;DHT22;7171;50.936;6.764;2022-10-16T14:57:43;22.50;99.90
14182;DHT22;7171;50.936;6.764;2022-10-16T15:00:16;22.40;99.90
14182;DHT22;7171;50.936;6.764;2022-10-16T15:02:46;22.30;99.90
14182;DHT22;7171;50.936;6.764;2022-10-16T15:05:16;22.30;99.90
14182;DHT22;7171;50.936;6.764;2022-10-16T15:07:43;22.30;99.90
14182;DHT22;7171;50.936;6.764;2022-10-16T15:10:11;22.30;99.90
14182;DHT22;7171;50.936;6.764;2022-10-16T15:12:38;22.30;99.90
14182;DHT22;7171;50.936;6.764;2022-10-16T15:15:31;22.20;99.90
14182;DHT22;7171;50.936;6.764;2022-10-16T15:18:00;22.20;99.90
14182;DHT22;7171;50.936;6.764;2022-10-16T15:20:29;22.20;99.90
14182;DHT22;7171;50.936;6.764;2022-10-16T15:22:56;22.10;99.90
14182;DHT22;7171;50.936;6.764;2022-10-16T15:25:30;22.00;99.90
14182;DHT22;7171;50.936;6.764;2022-10-16T15:27:58;22.00;99.90
14182;DHT22;7171;50.936;6.764;2022-10-16T15:30:25;22.00;99.90
14182;DHT22;7171;50.936;6.764;2022-10-16T15:32:52;21.90;99.90
14182;DHT22;7171;50.936;6.764;2022-10-16T15:35:20;21.90;99.90
14182;DHT22;7171;50.936;6.764;2022-10-16T15:37:47;21.90;99.90
14182;DHT22;7171;50.936;6.764;2022-10-16T15:40:15;21.80;99.90
14182;DHT22;7171;50.936;6.764;2022-10-16T15:42:42;21.80;99.90
14182;DHT22;7171;50.936;6.764;2022-10-16T15:45:10;21.80;99.90
14182;DHT22;7171;50.936;6.764;2022-10-16T15:47:37;21.70;99.90
14182;DHT22;7171;50.936;6.764;2022-10-16T15:50:05;21.70;99.90
14182;DHT22;7171;50.936;6.764;2022-10-16T15:52:33;21.70;99.90
14182;DHT22;7171;50.936;6.764;2022-10-16T15:54:59;21.70;99.90
14182;DHT22;7171;50.936;6.764;2022-10-16T15:57:27;21.60;99.90
14182;DHT22;7171;50.936;6.764;2022-10-16T15:59:54;21.60;99.90
14182;DHT22;7171;50.936;6.764;2022-10-16T16:02:21;21.60;99.90
14182;DHT22;7171;50.936;6.764;2022-10-16T16:04:47;21.70;99.90
14182;DHT22;7171;50.936;6.764;2022-10-16T16:07:14;21.80;99.90
14182;DHT22;7171;50.936;6.764;2022-10-16T16:09:42;21.80;99.90
14182;DHT22;7171;50.936;6.764;2022-10-16T16:12:10;21.70;99.90
14182;DHT22;7171;50.936;6.764;2022-10-16T16:14:37;21.70;99.90
14182;DHT22;7171;50.936;6.764;2022-10-16T16:17:03;21.60;99.90
14182;DHT22;7171;50.936;6.764;2022-10-16T16:19:30;21.60;99.90
14182;DHT22;7171;50.936;6.764;2022-10-16T16:21:57;21.50;99.90
14182;DHT22;7171;50.936;6.764;2022-10-16T16:24:24;21.50;99.90
14182;DHT22;7171;50.936;6.764;2022-10-16T16:26:52;21.50;99.90
14182;DHT22;7171;50.936;6.764;2022-10-16T16:29:18;21.50;99.90
14182;DHT22;7171;50.936;6.764;2022-10-16T16:31:45;21.50;99.90
14182;DHT22;7171;50.936;6.764;2022-10-16T16:34:12;21.50;99.90
14182;DHT22;7171;50.936;6.764;2022-10-16T16:36:39;21.60;99.90
14182;DHT22;7171;50.936;6.764;2022-10-16T16:39:06;21.60;99.90
14182;DHT22;7171;50.936;6.764;2022-10-16T16:41:33;21.60;99.90
14182;DHT22;7171;50.936;6.764;2022-10-16T16:44:06;21.50;99.90
14182;DHT22;7171;50.936;6.764;2022-10-16T16:46:34;21.50;99.90
14182;DHT22;7171;50.936;6.764;2022-10-16T16:49:01;21.50;99.90
14182;DHT22;7171;50.936;6.764;2022-10-16T16:51:28;21.50;99.90
14182;DHT22;7171;50.936;6.764;2022-10-16T16:53:55;21.50;99.90
14182;DHT22;7171;50.936;6.764;2022-10-16T16:56:23;21.40;99.90
14182;DHT22;7171;50.936;6.764;2022-10-16T16:58:53;21.50;99.90
14182;DHT22;7171;50.936;6.764;2022-10-16T17:01:22;21.50;99.90
14182;DHT22;7171;50.936;6.764;2022-10-16T17:03:51;21.60;99.90
14182;DHT22;7171;50.936;6.764;2022-10-16T17:06:19;21.30;99.90
14182;DHT22;7171;50.936;6.764;2022-10-16T17:08:47;21.10;99.90
14182;DHT22;7171;50.936;6.764;2022-10-16T17:11:16;20.90;99.90
14182;DHT22;7171;50.936;6.764;2022-10-16T17:13:43;20.70;99.90
14182;DHT22;7171;50.936;6.764;2022-10-16T17:16:10;20.50;99.90
14182;DHT22;7171;50.936;6.764;2022-10-16T17:18:38;20.40;99.90
14182;DHT22;7171;50.936;6.764;2022-10-16T17:21:08;20.30;99.90
14182;DHT22;7171;50.936;6.764;2022-10-16T17:23:36;20.20;99.90
14182;DHT22;7171;50.936;6.764;2022-10-16T17:26:05;20.10;99.90
14182;DHT22;7171;50.936;6.764;2022-10-16T17:28:33;20.00;99.90
14182;DHT22;7171;50.936;6.764;2022-10-16T17:31:09;20.00;99.90
14182;DHT22;7171;50.936;6.764;2022-10-16T17:33:38;19.90;99.90
14182;DHT22;7171;50.936;6.764;2022-10-16T17:36:05;19.90;99.90
14182;DHT22;7171;50.936;6.764;2022-10-16T17:38:33;19.80;99.90
14182;DHT22;7171;50.936;6.764;2022-10-16T17:41:09;19.80;99.90
14182;DHT22;7171;50.936;6.764;2022-10-16T17:43:36;19.70;99.90
14182;DHT22;7171;50.936;6.764;2022-10-16T17:46:04;19.70;99.90
14182;DHT22;7171;50.936;6.764;2022-10-16T17:48:30;19.70;99.90
14182;DHT22;7171;50.936;6.764;2022-10-16T17:50:58;19.60;99.90
14182;DHT22;7171;50.936;6.764;2022-10-16T17:53:25;19.60;99.90
14182;DHT22;7171;50.936;6.764;2022-10-16T17:55:52;19.60;99.90
14182;DHT22;7171;50.936;6.764;2022-10-16T17:58:23;19.60;99.90
14182;DHT22;7171;50.936;6.764;2022-10-16T18:00:50;19.60;99.90
14182;DHT22;7171;50.936;6.764;2022-10-16T18:03:17;19.50;99.90
14182;DHT22;7171;50.936;6.764;2022-10-16T18:05:43;19.50;99.90
14182;DHT22;7171;50.936;6.764;2022-10-16T18:08:11;19.50;99.90
14182;DHT22;7171;50.936;6.764;2022-10-16T18:10:44;19.50;99.90
14182;DHT22;7171;50.936;6.764;2022-10-16T18:13:11;19.50;99.90
14182;DHT22;7171;50.936;6.764;2022-10-16T18:15:38;19.50;99.90
14182;DHT22;7171;50.936;6.764;2022-10-16T18:18:04;19.40;99.90
14182;DHT22;7171;50.936;6.764;2022-10-16T18:20:31;19.40;99.90
14182;DHT22;7171;50.936;6.764;2022-10-16T18:22:58;19.40;99.90
14182;DHT22;7171;50.936;6.764;2022-10-16T18:25:26;19.40;99.90
14182;DHT22;7171;50.936;6.764;2022-10-16T18:27:53;19.40;99.90
14182;DHT22;7171;50.936;6.764;2022-10-16T18:30:20;19.40;99.90
14182;DHT22;7171;50.936;6.764;2022-10-16T18:32:47;19.40;99.90
14182;DHT22;7171;50.936;6.764;2022-10-16T18:35:13;19.40;99.90
14182;DHT22;7171;50.936;6.764;2022-10-16T18:37:40;19.40;99.90
14182;DHT22;7171;50.936;6.764;2022-10-16T18:40:07;19.40;99.90
14182;DHT22;7171;50.936;6.764;2022-10-16T18:42:35;19.40;99.90
14182;DHT22;7171;50.936;6.764;2022-10-16T18:45:02;19.40;99.90
14182;DHT22;7171;50.936;6.764;2022-10-16T18:47:29;19.40;99.90
14182;DHT22;7171;50.936;6.764;2022-10-16T18:49:56;19.40;99.90
14182;DHT22;7171;50.936;6.764;2022-10-16T18:52:22;19.40;99.90
14182;DHT22;7171;50.936;6.764;2022-10-16T18:54:54;19.30;99.90
14182;DHT22;7171;50.936;6.764;2022-10-16T18:57:21;19.30;99.90
14182;DHT22;7171;50.936;6.764;2022-10-16T18:59:49;19.30;99.90
14182;DHT22;7171;50.936;6.764;2022-10-16T19:02:16;19.30;99.90
14182;DHT22;7171;50.936;6.764;2022-10-16T19:04:42;19.30;99.90
14182;DHT22;7171;50.936;6.764;2022-10-16T19:07:09;19.30;99.90
14182;DHT22;7171;50.936;6.764;2022-10-16T19:09:36;19.40;99.90
14182;DHT22;7171;50.936;6.764;2022-10-16T19:12:04;19.40;99.90
14182;DHT22;7171;50.936;6.764;2022-10-16T19:14:32;19.40;99.90
14182;DHT22;7171;50.936;6.764;2022-10-16T19:17:00;19.40;99.90
14182;DHT22;7171;50.936;6.764;2022-10-16T19:19:27;19.40;99.90
14182;DHT22;7171;50.936;6.764;2022-10-16T19:21:53;19.40;99.90
14182;DHT22;7171;50.936;6.764;2022-10-16T19:24:36;19.40;99.90
14182;DHT22;7171;50.936;6.764;2022-10-16T19:27:03;19.40;99.90
14182;DHT22;7171;50.936;6.764;2022-10-16T19:29:29;19.40;99.90
14182;DHT22;7171;50.936;6.764;2022-10-16T19:31:57;19.40;99.90
14182;DHT22;7171;50.936;6.764;2022-10-16T19:34:28;19.30;99.90
14182;DHT22;7171;50.936;6.764;2022-10-16T19:36:55;19.30;99.90
14182;DHT22;7171;50.936;6.764;2022-10-16T19:39:22;19.30;99.90
14182;DHT22;7171;50.936;6.764;2022-10-16T19:41:49;19.20;99.90
14182;DHT22;7171;50.936;6.764;2022-10-16T19:44:17;19.20;99.90
14182;DHT22;7171;50.936;6.764;2022-10-16T19:46:44;19.20;99.90
14182;DHT22;7171;50.936;6.764;2022-10-16T19:49:12;19.20;99.90
14182;DHT22;7171;50.936;6.764;2022-10-16T19:51:40;19.20;99.90
14182;DHT22;7171;50.936;6.764;2022-10-16T19:54:10;19.10;99.90
14182;DHT22;7171;50.936;6.764;2022-10-16T19:56:37;19.10;99.90
14182;DHT22;7171;50.936;6.764;2022-10-16T19:59:05;19.10;99.90
14182;DHT22;7171;50.936;6.764;2022-10-16T20:01:33;19.10;99.90
14182;DHT22;7171;50.936;6.764;2022-10-16T20:03:59;19.10;99.90
14182;DHT22;7171;50.936;6.764;2022-10-16T20:06:26;19.10;99.90
14182;DHT22;7171;50.936;6.764;2022-10-16T20:08:55;19.00;99.90
14182;DHT22;7171;50.936;6.764;2022-10-16T20:11:24;19.00;99.90
14182;DHT22;7171;50.936;6.764;2022-10-16T20:13:51;19.00;99.90
14182;DHT22;7171;50.936;6.764;2022-10-16T20:16:18;19.00;99.90
14182;DHT22;7171;50.936;6.764;2022-10-16T20:18:46;19.00;99.90
14182;DHT22;7171;50.936;6.764;2022-10-16T20:21:15;19.00;99.90
14182;DHT22;7171;50.936;6.764;2022-10-16T20:23:42;18.90;99.90
14182;DHT22;7171;50.936;6.764;2022-10-16T20:26:10;18.90;99.90
14182;DHT22;7171;50.936;6.764;2022-10-16T20:28:38;18.90;99.90
14182;DHT22;7171;50.936;6.764;2022-10-16T20:31:06;18.90;99.90
14182;DHT22;7171;50.936;6.764;2022-10-16T20:33:34;18.80;99.90
14182;DHT22;7171;50.936;6.764;2022-10-16T20:36:01;18.80;99.90
14182;DHT22;7171;50.936;6.764;2022-10-16T20:38:27;18.80;99.90
14182;DHT22;7171;50.936;6.764;2022-10-16T20:40:54;18.80;99.90
14182;DHT22;7171;50.936;6.764;2022-10-16T20:43:22;18.70;99.90
14182;DHT22;7171;50.936;6.764;2022-10-16T20:45:58;18.70;99.90
14182;DHT22;7171;50.936;6.764;2022-10-16T20:48:25;18.70;99.90
14182;DHT22;7171;50.936;6.764;2022-10-16T20:50:51;18.70;99.90
14182;DHT22;7171;50.936;6.764;2022-10-16T20:53:18;18.70;99.90
14182;DHT22;7171;50.936;6.764;2022-10-16T20:55:45;18.70;99.90
14182;DHT22;7171;50.936;6.764;2022-10-16T20:58:11;18.60;99.90
14182;DHT22;7171;50.936;6.764;2022-10-16T21:00:39;18.60;99.90
14182;DHT22;7171;50.936;6.764;2022-10-16T21:03:07;18.60;99.90
14182;DHT22;7171;50.936;6.764;2022-10-16T21:05:39;18.60;99.90
14182;DHT22;7171;50.936;6.764;2022-10-16T21:08:06;18.50;99.90